createdAt,value
2023-03-10T00:00:04.898Z,507.00
2023-03-10T00:01:04.859Z,510.00
2023-03-10T00:02:04.848Z,506.00
2023-03-10T00:03:04.853Z,507.00
2023-03-10T00:04:04.952Z,504.00
2023-03-10T00:05:04.835Z,510.00
2023-03-10T00:06:04.898Z,507.00
2023-03-10T00:07:04.852Z,508.00
2023-03-10T00:08:03.814Z,508.00
2023-03-10T00:09:06.486Z,505.00
2023-03-10T00:10:04.872Z,513.00
2023-03-10T00:11:04.786Z,513.00
2023-03-10T00:12:04.781Z,509.00
2023-03-10T00:13:04.815Z,508.00
2023-03-10T00:14:04.775Z,509.00
2023-03-10T00:15:03.758Z,504.00
2023-03-10T00:16:04.814Z,507.00
2023-03-10T00:17:04.735Z,504.00
2023-03-10T00:18:04.731Z,511.00
2023-03-10T00:19:04.729Z,510.00
2023-03-10T00:20:04.706Z,507.00
2023-03-10T00:21:04.725Z,513.00
2023-03-10T00:22:04.714Z,510.00
2023-03-10T00:23:04.696Z,509.00
2023-03-10T00:24:04.674Z,507.00
2023-03-10T00:25:04.710Z,508.00
2023-03-10T00:26:04.665Z,515.00
2023-03-10T00:27:03.652Z,501.00
2023-03-10T00:28:04.679Z,502.00
2023-03-10T00:29:04.657Z,510.00
2023-03-10T00:30:04.672Z,509.00
2023-03-10T00:31:04.667Z,509.00
2023-03-10T00:32:04.625Z,508.00
2023-03-10T00:33:04.606Z,508.00
2023-03-10T00:34:04.630Z,508.00
2023-03-10T00:35:03.616Z,507.00
2023-03-10T00:36:03.652Z,503.00
2023-03-10T00:37:04.593Z,507.00
2023-03-10T00:38:04.591Z,509.00
2023-03-10T00:39:04.598Z,508.00
2023-03-10T00:40:03.569Z,508.00
2023-03-10T00:41:04.571Z,508.00
2023-03-10T00:42:04.567Z,500.00
2023-03-10T00:43:04.541Z,506.00
2023-03-10T00:44:03.548Z,506.00
2023-03-10T00:45:03.529Z,508.00
2023-03-10T00:46:04.651Z,510.00
2023-03-10T00:47:04.594Z,508.00
2023-03-10T00:48:04.537Z,505.00
2023-03-10T00:49:04.536Z,506.00
2023-03-10T00:50:04.509Z,508.00
2023-03-10T00:51:04.478Z,506.00
2023-03-10T00:52:03.456Z,511.00
2023-03-10T00:53:04.475Z,513.00
2023-03-10T00:54:04.454Z,509.00
2023-03-10T00:55:04.465Z,508.00
2023-03-10T00:56:04.443Z,507.00
2023-03-10T00:57:04.435Z,509.00
2023-03-10T00:58:04.463Z,509.00
2023-03-10T00:59:04.414Z,510.00
2023-03-10T01:00:04.419Z,502.00
2023-03-10T01:01:04.387Z,504.00
2023-03-10T01:02:04.447Z,507.00
2023-03-10T01:03:04.389Z,511.00
2023-03-10T01:04:04.440Z,507.00
2023-03-10T01:05:04.392Z,506.00
2023-03-10T01:06:04.369Z,507.00
2023-03-10T01:07:04.343Z,510.00
2023-03-10T01:08:04.340Z,507.00
2023-03-10T01:09:04.347Z,508.00
2023-03-10T01:10:03.336Z,507.00
2023-03-10T01:11:04.379Z,507.00
2023-03-10T01:12:03.298Z,512.00
2023-03-10T01:13:04.293Z,507.00
2023-03-10T01:14:04.276Z,504.00
2023-03-10T01:15:04.284Z,506.00
2023-03-10T01:16:04.331Z,506.00
2023-03-10T01:17:04.287Z,505.00
2023-03-10T01:18:04.264Z,504.00
2023-03-10T01:19:03.251Z,507.00
2023-03-10T01:20:04.256Z,505.00
2023-03-10T01:21:04.229Z,505.00
2023-03-10T01:22:04.233Z,507.00
2023-03-10T01:23:03.225Z,502.00
2023-03-10T01:24:04.242Z,503.00
2023-03-10T01:25:04.211Z,507.00
2023-03-10T01:26:04.195Z,509.00
2023-03-10T01:27:04.221Z,504.00
2023-03-10T01:28:03.190Z,506.00
2023-03-10T01:29:04.175Z,504.00
2023-03-10T01:30:04.182Z,508.00
2023-03-10T01:31:04.251Z,509.00
2023-03-10T01:32:04.178Z,503.00
2023-03-10T01:33:04.148Z,502.00
2023-03-10T01:34:04.176Z,505.00
2023-03-10T01:35:04.138Z,510.00
2023-03-10T01:36:03.168Z,502.00
2023-03-10T01:37:03.156Z,509.00
2023-03-10T01:38:04.113Z,506.00
2023-03-10T01:39:04.113Z,504.00
2023-03-10T01:40:03.098Z,504.00
2023-03-10T01:41:04.084Z,501.00
2023-03-10T01:42:04.091Z,506.00
2023-03-10T01:43:04.150Z,500.00
2023-03-10T01:44:03.060Z,507.00
2023-03-10T01:45:04.078Z,506.00
2023-03-10T01:46:04.058Z,505.00
2023-03-10T01:47:04.046Z,507.00
2023-03-10T01:48:04.049Z,503.00
2023-03-10T01:49:04.040Z,506.00
2023-03-10T01:50:04.052Z,508.00
2023-03-10T01:51:04.031Z,508.00
2023-03-10T01:52:04.038Z,505.00
2023-03-10T01:53:03.998Z,505.00
2023-03-10T01:54:03.995Z,507.00
2023-03-10T01:55:03.989Z,503.00
2023-03-10T01:56:03.999Z,507.00
2023-03-10T01:57:04.024Z,509.00
2023-03-10T01:58:02.963Z,506.00
2023-03-10T01:59:03.024Z,502.00
2023-03-10T02:00:03.943Z,506.00
2023-03-10T02:01:03.050Z,506.00
2023-03-10T02:02:04.049Z,505.00
2023-03-10T02:03:02.964Z,503.00
2023-03-10T02:04:03.912Z,504.00
2023-03-10T02:05:03.912Z,503.00
2023-03-10T02:06:03.912Z,506.00
2023-03-10T02:07:03.883Z,505.00
2023-03-10T02:08:03.879Z,509.00
2023-03-10T02:09:03.918Z,511.00
2023-03-10T02:10:03.870Z,507.00
2023-03-10T02:11:03.854Z,512.00
2023-03-10T02:12:02.856Z,506.00
2023-03-10T02:13:03.836Z,508.00
2023-03-10T02:14:03.828Z,507.00
2023-03-10T02:15:03.877Z,507.00
2023-03-10T02:16:02.866Z,503.00
2023-03-10T02:17:03.808Z,512.00
2023-03-10T02:18:03.953Z,502.00
2023-03-10T02:19:02.829Z,511.00
2023-03-10T02:20:03.797Z,507.00
2023-03-10T02:21:03.801Z,508.00
2023-03-10T02:22:02.780Z,505.00
2023-03-10T02:23:03.791Z,509.00
2023-03-10T02:24:03.760Z,507.00
2023-03-10T02:25:03.766Z,507.00
2023-03-10T02:26:03.752Z,510.00
2023-03-10T02:27:04.553Z,504.00
2023-03-10T02:28:03.740Z,503.00
2023-03-10T02:29:03.747Z,507.00
2023-03-10T02:30:03.732Z,508.00
2023-03-10T02:31:03.734Z,504.00
2023-03-10T02:32:03.825Z,501.00
2023-03-10T02:33:02.710Z,503.00
2023-03-10T02:34:03.685Z,503.00
2023-03-10T02:35:03.689Z,501.00
2023-03-10T02:36:03.722Z,506.00
2023-03-10T02:37:03.670Z,506.00
2023-03-10T02:38:03.651Z,504.00
2023-03-10T02:39:03.685Z,507.00
2023-03-10T02:40:03.653Z,509.00
2023-03-10T02:41:02.665Z,505.00
2023-03-10T02:42:03.620Z,501.00
2023-03-10T02:43:02.627Z,501.00
2023-03-10T02:44:03.608Z,503.00
2023-03-10T02:45:03.673Z,501.00
2023-03-10T02:46:02.745Z,500.00
2023-03-10T02:47:03.615Z,502.00
2023-03-10T02:48:03.588Z,500.00
2023-03-10T02:49:03.573Z,512.00
2023-03-10T02:50:02.570Z,505.00
2023-03-10T02:51:03.578Z,507.00
2023-03-10T02:52:03.580Z,511.00
2023-03-10T02:53:03.560Z,514.00
2023-03-10T02:54:03.534Z,505.00
2023-03-10T02:55:03.531Z,502.00
2023-03-10T02:56:03.550Z,506.00
2023-03-10T02:57:03.534Z,506.00
2023-03-10T02:58:03.537Z,504.00
2023-03-10T02:59:02.554Z,508.00
2023-03-10T03:00:03.600Z,506.00
2023-03-10T03:01:03.648Z,514.00
2023-03-10T03:02:03.567Z,511.00
2023-03-10T03:03:03.607Z,509.00
2023-03-10T03:04:03.656Z,501.00
2023-03-10T03:05:02.591Z,507.00
2023-03-10T03:06:03.598Z,509.00
2023-03-10T03:07:03.586Z,506.00
2023-03-10T03:08:03.620Z,506.00
2023-03-10T03:09:02.605Z,507.00
2023-03-10T03:10:03.598Z,501.00
2023-03-10T03:11:02.614Z,504.00
2023-03-10T03:12:03.613Z,508.00
2023-03-10T03:13:03.621Z,502.00
2023-03-10T03:14:02.625Z,503.00
2023-03-10T03:15:02.634Z,509.00
2023-03-10T03:16:02.630Z,505.00
2023-03-10T03:17:03.749Z,500.00
2023-03-10T03:18:03.644Z,504.00
2023-03-10T03:19:03.677Z,507.00
2023-03-10T03:20:03.637Z,500.00
2023-03-10T03:21:03.657Z,502.00
2023-03-10T03:22:02.687Z,502.00
2023-03-10T03:23:03.683Z,507.00
2023-03-10T03:24:03.651Z,507.00
2023-03-10T03:25:02.671Z,503.00
2023-03-10T03:26:03.672Z,513.00
2023-03-10T03:27:02.673Z,511.00
2023-03-10T03:28:02.694Z,507.00
2023-03-10T03:29:03.719Z,508.00
2023-03-10T03:30:03.722Z,515.00
2023-03-10T03:31:03.727Z,508.00
2023-03-10T03:32:03.774Z,505.00
2023-03-10T03:33:03.740Z,510.00
2023-03-10T03:34:02.740Z,511.00
2023-03-10T03:35:03.785Z,512.00
2023-03-10T03:36:03.774Z,504.00
2023-03-10T03:37:03.795Z,506.00
2023-03-10T03:38:03.785Z,513.00
2023-03-10T03:39:03.787Z,502.00
2023-03-10T03:40:03.790Z,507.00
2023-03-10T03:41:03.806Z,507.00
2023-03-10T03:42:03.798Z,504.00
2023-03-10T03:43:02.819Z,504.00
2023-03-10T03:44:03.853Z,508.00
2023-03-10T03:45:03.827Z,509.00
2023-03-10T03:46:03.931Z,500.00
2023-03-10T03:47:02.859Z,505.00
2023-03-10T03:48:02.873Z,507.00
2023-03-10T03:49:02.882Z,508.00
2023-03-10T03:50:03.931Z,500.00
2023-03-10T03:51:03.946Z,513.00
2023-03-10T03:52:03.924Z,513.00
2023-03-10T03:53:03.944Z,506.00
2023-03-10T03:54:03.952Z,517.00
2023-03-10T03:55:02.958Z,505.00
2023-03-10T03:56:03.984Z,518.00
2023-03-10T03:57:03.980Z,505.00
2023-03-10T03:58:02.997Z,506.00
2023-03-10T03:59:03.019Z,511.00
2023-03-10T04:00:04.006Z,503.00
2023-03-10T04:01:03.028Z,504.00
2023-03-10T04:02:04.080Z,503.00
2023-03-10T04:03:03.038Z,510.00
2023-03-10T04:04:04.027Z,506.00
2023-03-10T04:05:04.005Z,505.00
2023-03-10T04:06:04.007Z,508.00
2023-03-10T04:07:04.043Z,507.00
2023-03-10T04:08:03.004Z,504.00
2023-03-10T04:09:04.004Z,505.00
2023-03-10T04:10:04.013Z,507.00
2023-03-10T04:11:04.020Z,505.00
2023-03-10T04:12:04.030Z,499.00
2023-03-10T04:13:04.017Z,511.00
2023-03-10T04:14:04.034Z,508.00
2023-03-10T04:15:04.024Z,508.00
2023-03-10T04:16:04.113Z,506.00
2023-03-10T04:17:04.029Z,509.00
2023-03-10T04:18:04.072Z,511.00
2023-03-10T04:19:04.062Z,511.00
2023-03-10T04:20:07.737Z,509.00
2023-03-10T04:21:04.078Z,509.00
2023-03-10T04:22:04.071Z,510.00
2023-03-10T04:23:04.069Z,512.00
2023-03-10T04:24:04.137Z,512.00
2023-03-10T04:25:04.039Z,518.00
2023-03-10T04:26:03.016Z,520.00
2023-03-10T04:27:04.013Z,518.00
2023-03-10T04:28:04.001Z,519.00
2023-03-10T04:29:04.003Z,516.00
2023-03-10T04:30:03.017Z,523.00
2023-03-10T04:31:04.162Z,524.00
2023-03-10T04:32:05.829Z,522.00
2023-03-10T04:33:04.124Z,520.00
2023-03-10T04:34:03.136Z,526.00
2023-03-10T04:35:04.101Z,529.00
2023-03-10T04:36:04.157Z,529.00
2023-03-10T04:37:03.152Z,529.00
2023-03-10T04:38:04.089Z,524.00
2023-03-10T04:39:04.104Z,527.00
2023-03-10T04:40:04.071Z,525.00
2023-03-10T04:41:04.105Z,520.00
2023-03-10T04:42:04.050Z,529.00
2023-03-10T04:43:04.064Z,527.00
2023-03-10T04:44:04.044Z,533.00
2023-03-10T04:45:04.023Z,533.00
2023-03-10T04:46:03.056Z,529.00
2023-03-10T04:47:04.038Z,530.00
2023-03-10T04:48:02.998Z,530.00
2023-03-10T04:49:03.994Z,533.00
2023-03-10T04:50:03.005Z,531.00
2023-03-10T04:51:03.991Z,536.00
2023-03-10T04:52:04.004Z,537.00
2023-03-10T04:53:03.985Z,533.00
2023-03-10T04:54:03.963Z,538.00
2023-03-10T04:55:03.965Z,534.00
2023-03-10T04:56:03.983Z,540.00
2023-03-10T04:57:03.965Z,538.00
2023-03-10T04:58:03.947Z,537.00
2023-03-10T04:59:03.919Z,535.00
2023-03-10T05:00:03.625Z,540.00
2023-03-10T05:01:04.001Z,534.00
2023-03-10T05:02:03.971Z,536.00
2023-03-10T05:03:03.882Z,542.00
2023-03-10T05:04:03.939Z,537.00
2023-03-10T05:05:03.865Z,536.00
2023-03-10T05:06:02.865Z,536.00
2023-03-10T05:07:03.871Z,534.00
2023-03-10T05:08:03.865Z,534.00
2023-03-10T05:09:03.871Z,532.00
2023-03-10T05:10:02.927Z,532.00
2023-03-10T05:11:03.868Z,531.00
2023-03-10T05:12:03.816Z,532.00
2023-03-10T05:13:02.826Z,534.00
2023-03-10T05:14:03.852Z,533.00
2023-03-10T05:15:02.887Z,532.00
2023-03-10T05:16:03.009Z,531.00
2023-03-10T05:17:02.943Z,532.00
2023-03-10T05:18:02.960Z,529.00
2023-03-10T05:19:04.007Z,527.00
2023-03-10T05:20:04.007Z,535.00
2023-03-10T05:21:04.038Z,532.00
2023-03-10T05:22:04.061Z,527.00
2023-03-10T05:23:04.057Z,533.00
2023-03-10T05:24:04.087Z,528.00
2023-03-10T05:25:04.083Z,529.00
2023-03-10T05:26:04.123Z,531.00
2023-03-10T05:27:03.192Z,533.00
2023-03-10T05:28:03.163Z,532.00
2023-03-10T05:29:04.152Z,533.00
2023-03-10T05:30:04.203Z,530.00
2023-03-10T05:31:04.310Z,529.00
2023-03-10T05:32:04.201Z,531.00
2023-03-10T05:33:04.218Z,528.00
2023-03-10T05:34:04.232Z,531.00
2023-03-10T05:35:04.297Z,532.00
2023-03-10T05:36:04.358Z,531.00
2023-03-10T05:37:03.314Z,529.00
2023-03-10T05:38:04.312Z,529.00
2023-03-10T05:39:04.314Z,536.00
2023-03-10T05:40:04.341Z,539.00
2023-03-10T05:41:04.363Z,533.00
2023-03-10T05:42:04.371Z,533.00
2023-03-10T05:43:04.414Z,534.00
2023-03-10T05:44:04.411Z,531.00
2023-03-10T05:45:04.419Z,531.00
2023-03-10T05:46:04.436Z,536.00
2023-03-10T05:47:03.535Z,532.00
2023-03-10T05:48:03.447Z,540.00
2023-03-10T05:49:04.462Z,537.00
2023-03-10T05:50:03.459Z,536.00
2023-03-10T05:51:04.484Z,533.00
2023-03-10T05:52:03.459Z,534.00
2023-03-10T05:53:04.461Z,535.00
2023-03-10T05:54:04.481Z,535.00
2023-03-10T05:55:04.576Z,533.00
2023-03-10T05:56:04.514Z,537.00
2023-03-10T05:57:04.504Z,529.00
2023-03-10T05:58:03.495Z,532.00
2023-03-10T05:59:04.549Z,528.00
2023-03-10T06:00:04.519Z,533.00
2023-03-10T06:01:04.518Z,528.00
2023-03-10T06:02:04.517Z,531.00
2023-03-10T06:03:04.713Z,533.00
2023-03-10T06:04:03.623Z,532.00
2023-03-10T06:05:04.657Z,531.00
2023-03-10T06:06:04.591Z,528.00
2023-03-10T06:07:03.572Z,537.00
2023-03-10T06:08:03.522Z,527.00
2023-03-10T06:09:03.533Z,528.00
2023-03-10T06:10:04.491Z,529.00
2023-03-10T06:11:03.524Z,525.00
2023-03-10T06:12:03.504Z,530.00
2023-03-10T06:13:04.508Z,529.00
2023-03-10T06:14:04.517Z,530.00
2023-03-10T06:15:04.605Z,529.00
2023-03-10T06:16:03.597Z,528.00
2023-03-10T06:17:04.496Z,527.00
2023-03-10T06:18:03.485Z,531.00
2023-03-10T06:19:04.519Z,529.00
2023-03-10T06:20:04.475Z,531.00
2023-03-10T06:21:04.465Z,529.00
2023-03-10T06:22:04.477Z,526.00
2023-03-10T06:23:04.472Z,532.00
2023-03-10T06:24:04.571Z,526.00
2023-03-10T06:25:04.497Z,529.00
2023-03-10T06:26:04.465Z,527.00
2023-03-10T06:27:04.838Z,533.00
2023-03-10T06:28:04.485Z,535.00
2023-03-10T06:29:04.470Z,543.00
2023-03-10T06:30:04.618Z,547.00
2023-03-10T06:31:04.638Z,552.00
2023-03-10T06:32:04.588Z,555.00
2023-03-10T06:33:04.673Z,563.00
2023-03-10T06:34:04.859Z,570.00
2023-03-10T06:35:04.588Z,582.00
2023-03-10T06:36:03.729Z,588.00
2023-03-10T06:37:04.744Z,595.00
2023-03-10T06:38:04.781Z,595.00
2023-03-10T06:39:04.868Z,600.00
2023-03-10T06:40:05.095Z,603.00
2023-03-10T06:41:05.238Z,606.00
2023-03-10T06:42:05.013Z,609.00
2023-03-10T06:43:05.059Z,616.00
2023-03-10T06:44:05.122Z,628.00
2023-03-10T06:45:04.148Z,632.00
2023-03-10T06:46:05.273Z,643.00
2023-03-10T06:47:05.235Z,646.00
2023-03-10T06:48:04.240Z,656.00
2023-03-10T06:49:05.313Z,657.00
2023-03-10T06:50:05.293Z,675.00
2023-03-10T06:52:05.323Z,695.00
2023-03-10T06:53:05.320Z,703.00
2023-03-10T06:54:06.318Z,716.00
2023-03-10T06:55:05.289Z,752.00
2023-03-10T06:56:04.283Z,673.00
2023-03-10T06:57:05.287Z,634.00
2023-03-10T06:58:05.272Z,654.00
2023-03-10T06:59:05.264Z,641.00
2023-03-10T07:00:04.252Z,615.00
2023-03-10T07:01:05.297Z,609.00
2023-03-10T07:02:05.668Z,598.00
2023-03-10T07:03:05.337Z,570.00
2023-03-10T07:04:05.264Z,555.00
2023-03-10T07:05:05.339Z,555.00
2023-03-10T07:06:04.218Z,548.00
2023-03-10T07:07:04.193Z,544.00
2023-03-10T07:08:05.196Z,555.00
2023-03-10T07:09:04.224Z,571.00
2023-03-10T07:10:07.759Z,581.00
2023-03-10T07:11:05.236Z,593.00
2023-03-10T07:12:05.228Z,604.00
2023-03-10T07:13:05.249Z,617.00
2023-03-10T07:14:05.211Z,640.00
2023-03-10T07:15:05.210Z,661.00
2023-03-10T07:16:05.192Z,711.00
2023-03-10T07:17:05.266Z,754.00
2023-03-10T07:18:05.216Z,805.00
2023-03-10T07:19:05.206Z,848.00
2023-03-10T07:20:05.162Z,853.00
2023-03-10T07:21:05.170Z,893.00
2023-03-10T07:22:05.151Z,915.00
2023-03-10T07:23:05.145Z,956.00
2023-03-10T07:24:04.124Z,978.00
2023-03-10T07:25:05.126Z,1010.00
2023-03-10T07:26:04.113Z,1053.00
2023-03-10T07:27:05.141Z,1075.00
2023-03-10T07:28:05.199Z,1094.00
2023-03-10T07:29:05.096Z,1093.00
2023-03-10T07:31:05.265Z,1129.00
2023-03-10T07:32:05.085Z,1174.00
2023-03-10T07:33:05.080Z,1189.00
2023-03-10T07:34:05.066Z,1217.00
2023-03-10T07:35:05.203Z,1230.00
2023-03-10T07:36:05.071Z,1251.00
2023-03-10T07:37:05.069Z,1261.00
2023-03-10T07:38:05.049Z,1249.00
2023-03-10T07:39:05.059Z,1284.00
2023-03-10T07:40:05.050Z,1354.00
2023-03-10T07:42:05.024Z,1354.00
2023-03-10T07:43:05.031Z,1374.00
2023-03-10T07:44:05.011Z,1408.00
2023-03-10T07:45:04.987Z,1407.00
2023-03-10T07:46:05.058Z,1442.00
2023-03-10T07:47:04.981Z,1417.00
2023-03-10T07:48:04.968Z,1434.00
2023-03-10T07:49:04.968Z,1474.00
2023-03-10T07:51:05.013Z,1470.00
2023-03-10T07:52:05.172Z,1505.00
2023-03-10T07:53:05.103Z,1511.00
2023-03-10T07:54:05.155Z,1507.00
2023-03-10T07:55:05.219Z,1531.00
2023-03-10T07:56:05.286Z,1521.00
2023-03-10T07:57:05.685Z,1526.00
2023-03-10T07:59:05.387Z,1541.00
2023-03-10T08:00:05.384Z,1519.00
2023-03-10T08:01:05.364Z,1514.00
2023-03-10T08:02:05.374Z,1487.00
2023-03-10T08:04:05.588Z,1493.00
2023-03-10T08:06:05.378Z,1446.00
2023-03-10T08:07:05.375Z,1445.00
2023-03-10T08:08:05.414Z,1468.00
2023-03-10T08:09:05.465Z,1462.00
2023-03-10T08:10:05.565Z,1485.00
2023-03-10T08:11:05.573Z,1475.00
2023-03-10T08:12:04.652Z,1478.00
2023-03-10T08:13:05.695Z,1472.00
2023-03-10T08:14:04.885Z,1488.00
2023-03-10T08:15:05.806Z,1484.00
2023-03-10T08:16:05.965Z,1495.00
2023-03-10T08:17:05.929Z,1510.00
2023-03-10T08:18:05.976Z,1521.00
2023-03-10T08:19:06.038Z,1519.00
2023-03-10T08:20:06.095Z,1543.00
2023-03-10T08:21:05.140Z,1555.00
2023-03-10T08:22:06.204Z,1572.00
2023-03-10T08:23:06.261Z,1587.00
2023-03-10T08:24:05.295Z,1582.00
2023-03-10T08:25:06.356Z,1598.00
2023-03-10T08:26:06.384Z,1615.00
2023-03-10T08:27:05.436Z,1623.00
2023-03-10T08:28:06.503Z,1646.00
2023-03-10T08:29:06.522Z,1660.00
2023-03-10T08:30:06.561Z,1656.00
2023-03-10T08:31:06.786Z,1669.00
2023-03-10T08:32:06.771Z,1677.00
2023-03-10T08:33:06.759Z,1691.00
2023-03-10T08:34:05.770Z,1700.00
2023-03-10T08:35:06.817Z,1688.00
2023-03-10T08:36:06.965Z,1699.00
2023-03-10T08:37:06.887Z,1714.00
2023-03-10T08:38:06.927Z,1726.00
2023-03-10T08:39:06.976Z,1723.00
2023-03-10T08:40:05.983Z,1747.00
2023-03-10T08:41:07.007Z,1742.00
2023-03-10T08:42:07.181Z,1753.00
2023-03-10T08:43:07.084Z,1745.00
2023-03-10T08:44:07.119Z,1766.00
2023-03-10T08:45:08.696Z,1774.00
2023-03-10T08:46:08.702Z,1771.00
2023-03-10T08:47:07.229Z,1772.00
2023-03-10T08:48:07.149Z,1778.00
2023-03-10T08:49:06.102Z,1784.00
2023-03-10T08:50:07.091Z,1787.00
2023-03-10T08:51:07.076Z,1799.00
2023-03-10T08:52:07.278Z,1783.00
2023-03-10T08:53:07.063Z,1779.00
2023-03-10T08:54:07.071Z,1760.00
2023-03-10T08:55:06.121Z,1744.00
2023-03-10T08:56:07.060Z,1756.00
2023-03-10T08:57:07.066Z,1750.00
2023-03-10T08:58:07.054Z,1742.00
2023-03-10T08:59:06.042Z,1726.00
2023-03-10T09:00:07.011Z,1740.00
2023-03-10T09:01:06.025Z,1723.00
2023-03-10T09:02:07.170Z,1700.00
2023-03-10T09:03:07.041Z,1707.00
2023-03-10T09:04:07.012Z,1696.00
2023-03-10T09:05:07.013Z,1679.00
2023-03-10T09:06:05.973Z,1682.00
2023-03-10T09:07:06.968Z,1702.00
2023-03-10T09:08:06.974Z,1696.00
2023-03-10T09:09:06.944Z,1683.00
2023-03-10T09:10:06.952Z,1684.00
2023-03-10T09:11:06.966Z,1704.00
2023-03-10T09:12:05.987Z,1697.00
2023-03-10T09:13:13.631Z,1680.00
2023-03-10T09:14:07.061Z,1680.00
2023-03-10T09:15:05.910Z,1682.00
2023-03-10T09:16:08.736Z,1644.00
2023-03-10T09:17:05.898Z,1596.00
2023-03-10T09:18:05.895Z,1524.00
2023-03-10T09:19:06.897Z,1401.00
2023-03-10T09:20:06.874Z,1261.00
2023-03-10T09:21:06.856Z,1185.00
2023-03-10T09:22:06.868Z,1171.00
2023-03-10T09:23:06.863Z,1132.00
2023-03-10T09:24:06.846Z,1049.00
2023-03-10T09:25:05.831Z,1023.00
2023-03-10T09:26:06.861Z,1000.00
2023-03-10T09:27:05.860Z,934.00
2023-03-10T09:28:06.801Z,915.00
2023-03-10T09:29:06.811Z,881.00
2023-03-10T09:30:06.795Z,900.00
2023-03-10T09:31:06.794Z,874.00
2023-03-10T09:32:08.728Z,868.00
2023-03-10T09:33:06.841Z,861.00
2023-03-10T09:34:06.782Z,863.00
2023-03-10T09:35:06.753Z,841.00
2023-03-10T09:36:07.602Z,830.00
2023-03-10T09:37:08.190Z,767.00
2023-03-10T09:38:06.750Z,756.00
2023-03-10T09:39:06.742Z,714.00
2023-03-10T09:40:06.412Z,711.00
2023-03-10T09:41:08.359Z,708.00
2023-03-10T09:42:06.721Z,700.00
2023-03-10T09:43:05.741Z,710.00
2023-03-10T09:44:06.687Z,689.00
2023-03-10T09:45:06.688Z,640.00
2023-03-10T09:46:06.729Z,585.00
2023-03-10T09:47:06.689Z,567.00
2023-03-10T09:48:06.661Z,575.00
2023-03-10T09:49:06.658Z,599.00
2023-03-10T09:50:06.646Z,623.00
2023-03-10T09:51:05.644Z,645.00
2023-03-10T09:52:06.636Z,660.00
2023-03-10T09:53:05.645Z,738.00
2023-03-10T09:54:06.628Z,801.00
2023-03-10T09:55:06.644Z,835.00
2023-03-10T09:56:06.611Z,906.00
2023-03-10T09:57:06.718Z,940.00
2023-03-10T09:58:06.592Z,957.00
2023-03-10T09:59:05.610Z,999.00
2023-03-10T10:00:06.569Z,1008.00
2023-03-10T10:01:06.603Z,1049.00
2023-03-10T10:02:06.588Z,1079.00
2023-03-10T10:03:08.953Z,1135.00
2023-03-10T10:04:05.724Z,1135.00
2023-03-10T10:05:05.632Z,1137.00
2023-03-10T10:06:06.523Z,1137.00
2023-03-10T10:07:06.529Z,1156.00
2023-03-10T10:08:06.523Z,1166.00
2023-03-10T10:09:05.979Z,1134.00
2023-03-10T10:10:05.531Z,1206.00
2023-03-10T10:11:05.502Z,1173.00
2023-03-10T10:13:06.482Z,1213.00
2023-03-10T10:14:08.107Z,1193.00
2023-03-10T10:15:06.550Z,1194.00
2023-03-10T10:16:24.428Z,1197.00
2023-03-10T10:17:06.631Z,1194.00
2023-03-10T10:18:18.052Z,1199.00
2023-03-10T10:19:06.631Z,1196.00
2023-03-10T10:20:06.479Z,1201.00
2023-03-10T10:21:05.489Z,1213.00
2023-03-10T10:22:06.493Z,1214.00
2023-03-10T10:23:05.461Z,1228.00
2023-03-10T10:24:05.485Z,1209.00
2023-03-10T10:25:08.160Z,1239.00
2023-03-10T10:26:05.452Z,1239.00
2023-03-10T10:27:06.460Z,1226.00
2023-03-10T10:28:05.435Z,1246.00
2023-03-10T10:29:05.452Z,1231.00
2023-03-10T10:30:05.409Z,1225.00
2023-03-10T10:32:06.409Z,1198.00
2023-03-10T10:33:06.393Z,1239.00
2023-03-10T10:34:06.429Z,1228.00
2023-03-10T10:35:05.378Z,1234.00
2023-03-10T10:36:06.427Z,1215.00
2023-03-10T10:37:05.356Z,1226.00
2023-03-10T10:38:06.397Z,1210.00
2023-03-10T10:39:05.356Z,1249.00
2023-03-10T10:40:07.289Z,1245.00
2023-03-10T10:41:07.679Z,1245.00
2023-03-10T10:42:06.503Z,1246.00
2023-03-10T10:43:06.521Z,1234.00
2023-03-10T10:44:06.531Z,1236.00
2023-03-10T10:45:06.554Z,1250.00
2023-03-10T10:46:06.642Z,1259.00
2023-03-10T10:47:06.773Z,1197.00
2023-03-10T10:48:08.116Z,1245.00
2023-03-10T10:49:06.665Z,1272.00
2023-03-10T10:50:06.706Z,1235.00
2023-03-10T10:51:09.736Z,1236.00
2023-03-10T10:52:05.728Z,1269.00
2023-03-10T10:53:06.736Z,1281.00
2023-03-10T10:54:06.698Z,1268.00
2023-03-10T10:55:06.692Z,1275.00
2023-03-10T10:56:06.686Z,1313.00
2023-03-10T10:57:06.669Z,1305.00
2023-03-10T10:58:06.692Z,1319.00
2023-03-10T10:59:06.677Z,1336.00
2023-03-10T11:00:06.647Z,1357.00
2023-03-10T11:01:06.692Z,1388.00
2023-03-10T11:02:06.674Z,1417.00
2023-03-10T11:03:06.658Z,1437.00
2023-03-10T11:04:06.621Z,1440.00
2023-03-10T11:05:05.630Z,1455.00
2023-03-10T11:06:06.632Z,1497.00
2023-03-10T11:07:06.594Z,1512.00
2023-03-10T11:08:06.739Z,1521.00
2023-03-10T11:09:08.445Z,1542.00
2023-03-10T11:10:06.612Z,1571.00
2023-03-10T11:11:05.584Z,1586.00
2023-03-10T11:12:06.571Z,1605.00
2023-03-10T11:13:06.565Z,1628.00
2023-03-10T11:14:06.571Z,1631.00
2023-03-10T11:15:06.594Z,1639.00
2023-03-10T11:16:06.642Z,1659.00
2023-03-10T11:17:06.550Z,1666.00
2023-03-10T11:18:06.548Z,1671.00
2023-03-10T11:19:06.549Z,1691.00
2023-03-10T11:20:06.550Z,1705.00
2023-03-10T11:21:06.564Z,1708.00
2023-03-10T11:22:06.595Z,1732.00
2023-03-10T11:23:06.565Z,1734.00
2023-03-10T11:24:06.509Z,1729.00
2023-03-10T11:25:06.517Z,1763.00
2023-03-10T11:26:07.266Z,1773.00
2023-03-10T11:27:05.475Z,1782.00
2023-03-10T11:28:05.484Z,1799.00
2023-03-10T11:29:05.505Z,1808.00
2023-03-10T11:30:06.589Z,1816.00
2023-03-10T11:31:06.481Z,1822.00
2023-03-10T11:32:05.438Z,1839.00
2023-03-10T11:33:06.429Z,1848.00
2023-03-10T11:34:06.422Z,1849.00
2023-03-10T11:35:06.477Z,1855.00
2023-03-10T11:36:05.461Z,1875.00
2023-03-10T11:37:05.395Z,1883.00
2023-03-10T11:38:06.424Z,1882.00
2023-03-10T11:39:06.377Z,1898.00
2023-03-10T11:40:06.503Z,1909.00
2023-03-10T11:41:05.363Z,1898.00
2023-03-10T11:42:06.377Z,1931.00
2023-03-10T11:43:06.787Z,1958.00
2023-03-10T11:44:06.369Z,1964.00
2023-03-10T11:45:06.348Z,1960.00
2023-03-10T11:46:06.413Z,1962.00
2023-03-10T11:47:05.342Z,1962.00
2023-03-10T11:48:05.328Z,1967.00
2023-03-10T11:49:05.330Z,1963.00
2023-03-10T11:50:06.385Z,1960.00
2023-03-10T11:51:06.623Z,1967.00
2023-03-10T11:52:05.552Z,1950.00
2023-03-10T11:53:06.576Z,1932.00
2023-03-10T11:54:05.616Z,1920.00
2023-03-10T11:55:06.625Z,1936.00
2023-03-10T11:56:06.648Z,1933.00
2023-03-10T11:57:05.631Z,1933.00
2023-03-10T11:58:06.661Z,1918.00
2023-03-10T11:59:06.640Z,1909.00
2023-03-10T12:00:06.645Z,1918.00
2023-03-10T12:01:06.630Z,1903.00
2023-03-10T12:02:06.650Z,1903.00
2023-03-10T12:03:05.621Z,1886.00
2023-03-10T12:04:06.626Z,1887.00
2023-03-10T12:05:05.687Z,1883.00
2023-03-10T12:06:06.623Z,1868.00
2023-03-10T12:07:06.653Z,1866.00
2023-03-10T12:08:06.651Z,1845.00
2023-03-10T12:09:06.657Z,1859.00
2023-03-10T12:10:06.652Z,1848.00
2023-03-10T12:11:06.672Z,1836.00
2023-03-10T12:12:06.705Z,1835.00
2023-03-10T12:13:05.686Z,1829.00
2023-03-10T12:14:05.708Z,1831.00
2023-03-10T12:15:06.716Z,1799.00
2023-03-10T12:16:06.764Z,1807.00
2023-03-10T12:17:06.781Z,1796.00
2023-03-10T12:18:06.806Z,1795.00
2023-03-10T12:19:06.810Z,1784.00
2023-03-10T12:20:06.829Z,1777.00
2023-03-10T12:21:06.839Z,1770.00
2023-03-10T12:22:06.846Z,1765.00
2023-03-10T12:23:06.898Z,1760.00
2023-03-10T12:24:06.907Z,1765.00
2023-03-10T12:25:06.924Z,1758.00
2023-03-10T12:26:06.960Z,1753.00
2023-03-10T12:27:06.979Z,1754.00
2023-03-10T12:28:07.046Z,1754.00
2023-03-10T12:29:07.037Z,1730.00